createdAt,value
2022-08-31T00:00:32.388Z,45.77
2022-08-31T00:05:39.565Z,45.95
2022-08-31T00:10:47.214Z,46.15
2022-08-31T00:15:53.942Z,46.37
2022-08-31T00:21:01.121Z,46.56
2022-08-31T00:26:08.312Z,46.74
2022-08-31T00:31:15.604Z,46.78
2022-08-31T00:36:22.778Z,46.74
2022-08-31T00:41:29.965Z,46.87
2022-08-31T00:46:37.171Z,47.22
2022-08-31T00:51:44.360Z,47.38
2022-08-31T00:56:51.548Z,47.51
2022-08-31T01:01:58.900Z,47.46
2022-08-31T01:07:06.044Z,47.49
2022-08-31T01:12:13.296Z,47.60
2022-08-31T01:17:20.507Z,47.74
2022-08-31T01:22:27.767Z,47.84
2022-08-31T01:27:35.047Z,47.78
2022-08-31T01:32:42.257Z,47.79
2022-08-31T01:37:49.571Z,47.69
2022-08-31T01:42:56.832Z,47.93
2022-08-31T01:48:04.065Z,47.93
2022-08-31T01:53:11.314Z,48.03
2022-08-31T01:58:18.465Z,48.18
2022-08-31T02:03:25.667Z,48.37
2022-08-31T02:08:32.932Z,48.28
2022-08-31T02:13:40.104Z,48.42
2022-08-31T02:18:47.277Z,48.55
2022-08-31T02:23:54.469Z,48.62
2022-08-31T02:29:01.656Z,48.81
2022-08-31T02:34:08.847Z,48.91
2022-08-31T02:39:16.031Z,48.96
2022-08-31T02:44:23.199Z,49.17
2022-08-31T02:49:30.396Z,49.38
2022-08-31T02:54:37.587Z,49.37
2022-08-31T02:59:44.766Z,49.36
2022-08-31T03:04:51.943Z,49.73
2022-08-31T03:09:59.134Z,49.76
2022-08-31T03:15:06.316Z,50.01
2022-08-31T03:20:13.505Z,50.28
2022-08-31T03:25:20.719Z,49.92
2022-08-31T03:30:29.850Z,49.66
2022-08-31T03:35:35.175Z,49.68
2022-08-31T03:40:42.431Z,50.00
2022-08-31T03:45:49.678Z,49.62
2022-08-31T03:50:56.748Z,49.72
2022-08-31T03:56:04.025Z,50.69
2022-08-31T04:01:11.337Z,50.15
2022-08-31T04:06:18.470Z,50.16
2022-08-31T04:11:32.748Z,50.13
2022-08-31T04:16:32.892Z,50.05
2022-08-31T04:21:40.144Z,50.35
2022-08-31T04:26:47.315Z,50.67
2022-08-31T04:31:54.494Z,50.74
2022-08-31T04:37:01.700Z,50.84
2022-08-31T04:42:08.856Z,51.22
2022-08-31T04:47:16.059Z,51.27
2022-08-31T04:52:23.936Z,51.43
2022-08-31T04:57:30.445Z,51.73
2022-08-31T05:02:37.723Z,51.58
2022-08-31T05:07:44.921Z,51.79
2022-08-31T05:12:52.129Z,51.59
2022-08-31T05:17:59.264Z,51.55
2022-08-31T05:23:06.459Z,51.80
2022-08-31T05:28:13.638Z,51.44
2022-08-31T05:33:20.829Z,51.25
2022-08-31T05:38:27.991Z,51.79
2022-08-31T05:43:35.222Z,51.99
2022-08-31T05:48:42.392Z,51.23
2022-08-31T05:53:49.583Z,51.76
2022-08-31T05:58:56.875Z,51.21
2022-08-31T06:04:04.144Z,51.37
2022-08-31T06:09:11.319Z,51.97
2022-08-31T06:14:18.505Z,51.36
2022-08-31T06:19:25.804Z,51.89
2022-08-31T06:24:33.002Z,52.23
2022-08-31T06:29:40.158Z,52.01
2022-08-31T06:34:47.345Z,52.33
2022-08-31T06:39:54.540Z,52.41
2022-08-31T06:45:01.782Z,52.36
2022-08-31T06:50:08.995Z,52.80
2022-08-31T06:55:16.185Z,52.81
2022-08-31T07:00:23.365Z,52.38
2022-08-31T07:05:30.549Z,52.80
2022-08-31T07:10:37.744Z,53.46
2022-08-31T07:15:44.938Z,53.40
2022-08-31T07:20:52.124Z,54.05
2022-08-31T07:25:59.303Z,53.96
2022-08-31T07:31:06.614Z,54.05
2022-08-31T07:36:13.785Z,54.59
2022-08-31T07:41:21.009Z,53.92
2022-08-31T07:46:28.320Z,54.59
2022-08-31T07:51:35.450Z,55.11
2022-08-31T07:56:42.636Z,55.11
2022-08-31T08:01:50.046Z,54.90
2022-08-31T08:06:57.187Z,54.43
2022-08-31T08:12:04.379Z,53.80
2022-08-31T08:17:11.569Z,53.72
2022-08-31T08:22:35.705Z,52.97
2022-08-31T08:27:26.021Z,53.15
2022-08-31T08:32:33.313Z,53.67
2022-08-31T08:37:57.363Z,54.46
2022-08-31T08:42:47.792Z,54.18
2022-08-31T08:47:55.071Z,54.61
2022-08-31T08:53:02.383Z,55.59
2022-08-31T08:58:09.652Z,55.04
2022-08-31T09:03:16.856Z,56.64
2022-08-31T09:08:24.124Z,55.15
2022-08-31T09:13:31.302Z,55.73
2022-08-31T09:18:38.632Z,56.47
2022-08-31T09:23:45.929Z,57.25
2022-08-31T09:28:53.200Z,58.13
2022-08-31T09:34:00.486Z,59.39
2022-08-31T09:39:07.707Z,59.15
2022-08-31T09:44:15.733Z,59.63
2022-08-31T09:49:22.921Z,58.97
2022-08-31T09:54:30.212Z,58.85
2022-08-31T09:59:37.485Z,59.14
2022-08-31T10:04:44.802Z,59.30
2022-08-31T10:09:57.647Z,59.37
2022-08-31T10:14:59.227Z,60.07
2022-08-31T10:20:06.396Z,60.57
2022-08-31T10:25:13.587Z,60.17
2022-08-31T10:30:20.787Z,59.51
2022-08-31T10:35:27.953Z,58.56
2022-08-31T10:40:35.234Z,59.12
2022-08-31T10:45:42.334Z,58.38
2022-08-31T10:50:49.497Z,58.00
2022-08-31T10:55:56.704Z,58.54
2022-08-31T11:01:03.947Z,58.31
2022-08-31T11:06:11.169Z,58.45
2022-08-31T11:11:18.376Z,58.85
2022-08-31T11:16:25.571Z,59.04
2022-08-31T11:21:32.843Z,59.43
2022-08-31T11:26:40.023Z,59.43
2022-08-31T11:31:47.446Z,59.39
2022-08-31T11:36:54.745Z,59.29
2022-08-31T11:42:01.660Z,58.90
2022-08-31T11:47:08.892Z,59.67
2022-08-31T11:52:16.160Z,57.99
2022-08-31T11:57:23.330Z,58.23
2022-08-31T12:02:30.625Z,58.20
2022-08-31T12:07:37.676Z,58.25
2022-08-31T12:12:44.894Z,57.92
2022-08-31T12:17:52.295Z,57.47
2022-08-31T12:23:01.843Z,57.10
2022-08-31T12:28:09.055Z,57.35
2022-08-31T12:33:16.333Z,57.13
2022-08-31T12:38:23.531Z,56.90
2022-08-31T12:43:30.717Z,56.84
2022-08-31T12:48:37.972Z,57.08
2022-08-31T12:53:45.171Z,57.71
2022-08-31T12:58:52.359Z,57.83
2022-08-31T13:03:59.543Z,56.46
2022-08-31T13:09:06.721Z,56.96
2022-08-31T13:14:13.997Z,55.82
2022-08-31T13:19:21.189Z,56.28
2022-08-31T13:24:28.387Z,55.47
2022-08-31T13:29:35.682Z,55.87
2022-08-31T13:34:42.875Z,55.11
2022-08-31T13:39:50.130Z,55.41
2022-08-31T13:44:57.338Z,55.34
2022-08-31T13:50:04.534Z,55.54
2022-08-31T13:55:11.813Z,54.91
2022-08-31T14:00:19.046Z,54.00
2022-08-31T14:05:26.454Z,53.45
2022-08-31T14:10:33.650Z,53.65
2022-08-31T14:15:40.964Z,53.11
2022-08-31T14:21:16.844Z,52.86
2022-08-31T14:25:55.397Z,53.32
2022-08-31T14:31:02.677Z,53.66
2022-08-31T14:36:09.884Z,53.85
2022-08-31T14:41:17.045Z,53.79
2022-08-31T14:46:24.249Z,53.88
2022-08-31T14:51:31.437Z,54.13
2022-08-31T14:56:38.613Z,53.74
2022-08-31T15:01:45.850Z,52.63
2022-08-31T15:06:52.987Z,52.99
2022-08-31T15:12:00.238Z,53.41
2022-08-31T15:17:07.445Z,53.90
2022-08-31T15:22:14.630Z,53.39
2022-08-31T15:27:21.816Z,54.11
2022-08-31T15:32:29.021Z,53.54
2022-08-31T15:37:36.177Z,54.08
2022-08-31T15:42:43.381Z,53.93
2022-08-31T15:47:50.565Z,54.54
2022-08-31T15:52:57.752Z,54.11
2022-08-31T15:58:04.946Z,54.25
2022-08-31T16:03:12.131Z,54.06
2022-08-31T16:08:19.529Z,54.34
2022-08-31T16:13:26.479Z,54.52
2022-08-31T16:18:33.701Z,54.25
2022-08-31T16:23:40.971Z,54.44
2022-08-31T16:28:48.151Z,54.37
2022-08-31T16:33:55.343Z,54.50
2022-08-31T16:39:02.516Z,54.63
2022-08-31T16:44:19.634Z,54.54
2022-08-31T16:49:16.896Z,54.12
2022-08-31T16:54:24.090Z,54.98
2022-08-31T16:59:31.260Z,54.74
2022-08-31T17:04:52.197Z,55.78
2022-08-31T17:09:45.726Z,55.51
2022-08-31T17:14:53.013Z,55.65
2022-08-31T17:20:00.101Z,56.17
2022-08-31T17:25:07.279Z,55.31
2022-08-31T17:30:14.492Z,54.72
2022-08-31T17:35:21.750Z,54.61
2022-08-31T17:40:29.069Z,54.64
2022-08-31T17:45:36.227Z,55.53
2022-08-31T17:50:43.422Z,54.95
2022-08-31T17:55:50.711Z,54.21
2022-08-31T18:00:58.042Z,53.88
2022-08-31T18:06:05.169Z,53.22
2022-08-31T18:11:12.348Z,53.13
2022-08-31T18:16:19.613Z,53.13
2022-08-31T18:21:26.796Z,53.12
2022-08-31T18:26:33.994Z,53.02
2022-08-31T18:31:41.276Z,52.59
2022-08-31T18:36:48.386Z,52.11
2022-08-31T18:41:55.684Z,52.19
2022-08-31T18:47:02.880Z,51.45
2022-08-31T18:52:10.158Z,51.40
2022-08-31T18:57:17.635Z,51.53
2022-08-31T19:02:25.267Z,51.47
2022-08-31T19:07:32.453Z,51.50
2022-08-31T19:12:39.732Z,51.32
2022-08-31T19:17:47.158Z,51.04
2022-08-31T19:22:54.481Z,50.92
2022-08-31T19:28:01.892Z,50.78
2022-08-31T19:33:09.218Z,50.70
2022-08-31T19:38:16.702Z,50.62
2022-08-31T19:48:31.921Z,49.95
2022-08-31T19:53:40.472Z,49.85
2022-08-31T19:58:47.041Z,50.04
2022-08-31T20:03:54.259Z,49.62
2022-08-31T20:09:01.529Z,49.48
2022-08-31T20:14:08.803Z,49.50
2022-08-31T20:19:16.011Z,49.44
2022-08-31T20:24:23.302Z,49.55
2022-08-31T20:29:30.489Z,49.48
2022-08-31T20:34:37.792Z,49.61
2022-08-31T20:39:45.061Z,49.33
2022-08-31T20:44:52.343Z,49.19
2022-08-31T20:49:59.651Z,49.44
2022-08-31T20:55:06.898Z,49.22
2022-08-31T21:00:14.144Z,49.16
2022-08-31T21:05:38.744Z,49.18
2022-08-31T21:10:37.595Z,49.10
2022-08-31T21:15:35.973Z,48.82
2022-08-31T21:20:43.006Z,48.97
2022-08-31T21:25:50.209Z,48.95
2022-08-31T21:30:57.549Z,48.83
2022-08-31T21:36:04.683Z,48.96
2022-08-31T21:41:11.972Z,48.89
2022-08-31T21:46:19.192Z,48.80
2022-08-31T21:51:26.331Z,48.36
2022-08-31T21:56:33.499Z,48.41
2022-08-31T22:01:40.755Z,48.53
2022-08-31T22:06:47.875Z,48.36
2022-08-31T22:11:55.057Z,48.76
2022-08-31T22:17:02.184Z,48.25
2022-08-31T22:22:12.092Z,48.32
2022-08-31T22:27:16.605Z,48.11
2022-08-31T22:32:23.843Z,48.11
2022-08-31T22:37:31.080Z,48.37
2022-08-31T22:42:38.271Z,48.48
2022-08-31T22:47:50.062Z,48.53
2022-08-31T22:52:52.631Z,48.32
2022-08-31T22:57:59.831Z,48.53
2022-08-31T23:03:07.001Z,48.20
2022-08-31T23:08:14.193Z,48.09
2022-08-31T23:13:21.368Z,48.31
2022-08-31T23:18:28.664Z,48.31
2022-08-31T23:23:35.855Z,48.20
2022-08-31T23:28:43.041Z,48.25
2022-08-31T23:33:50.225Z,48.24
2022-08-31T23:38:57.461Z,48.05
2022-08-31T23:44:04.692Z,47.88
2022-08-31T23:49:11.874Z,47.98
2022-08-31T23:54:19.066Z,47.91
2022-08-31T23:59:26.246Z,48.09
